sensor_id;sensor_type;location;lat;lon;timestamp;pressure;altitude;pressure_sealevel;temperature;humidity
18988;BME280;5494;51.796;10.952;2022-10-31T00:01:38;99355.88;;;15.38;75.79
18988;BME280;5494;51.796;10.952;2022-10-31T00:04:07;99353.75;;;15.31;76.17
18988;BME280;5494;51.796;10.952;2022-10-31T00:06:37;99359.19;;;15.28;76.34
18988;BME280;5494;51.796;10.952;2022-10-31T00:09:06;99356.94;;;15.22;76.95
18988;BME280;5494;51.796;10.952;2022-10-31T00:11:35;99354.31;;;15.22;76.59
18988;BME280;5494;51.796;10.952;2022-10-31T00:14:03;99353.88;;;15.15;77.29
18988;BME280;5494;51.796;10.952;2022-10-31T00:16:32;99363.34;;;15.18;76.92
18988;BME280;5494;51.796;10.952;2022-10-31T00:19:05;99360.63;;;15.19;76.76
18988;BME280;5494;51.796;10.952;2022-10-31T00:21:35;99360.34;;;15.10;76.90
18988;BME280;5494;51.796;10.952;2022-10-31T00:24:06;99358.22;;;15.02;77.34
18988;BME280;5494;51.796;10.952;2022-10-31T00:26:34;99371.69;;;14.82;78.59
18988;BME280;5494;51.796;10.952;2022-10-31T00:29:03;99371.16;;;14.77;78.93
18988;BME280;5494;51.796;10.952;2022-10-31T00:31:32;99368.91;;;14.71;78.75
18988;BME280;5494;51.796;10.952;2022-10-31T00:34:01;99372.91;;;14.76;78.91
18988;BME280;5494;51.796;10.952;2022-10-31T00:36:30;99381.41;;;14.80;78.79
18988;BME280;5494;51.796;10.952;2022-10-31T00:38:59;99376.75;;;14.71;78.87
18988;BME280;5494;51.796;10.952;2022-10-31T00:41:30;99387.50;;;14.66;79.28
18988;BME280;5494;51.796;10.952;2022-10-31T00:43:59;99377.22;;;14.63;79.30
18988;BME280;5494;51.796;10.952;2022-10-31T00:46:28;99377.41;;;14.60;79.57
18988;BME280;5494;51.796;10.952;2022-10-31T00:48:56;99388.25;;;14.54;79.99
18988;BME280;5494;51.796;10.952;2022-10-31T00:51:25;99388.25;;;14.54;80.10
18988;BME280;5494;51.796;10.952;2022-10-31T00:53:54;99382.28;;;14.52;80.59
18988;BME280;5494;51.796;10.952;2022-10-31T00:56:22;99381.06;;;14.43;81.04
18988;BME280;5494;51.796;10.952;2022-10-31T00:58:53;99383.16;;;14.37;81.36
18988;BME280;5494;51.796;10.952;2022-10-31T01:01:22;99387.00;;;14.31;81.88
18988;BME280;5494;51.796;10.952;2022-10-31T01:03:51;99383.91;;;14.39;81.70
18988;BME280;5494;51.796;10.952;2022-10-31T01:06:19;99384.38;;;14.31;81.78
18988;BME280;5494;51.796;10.952;2022-10-31T01:08:48;99379.41;;;14.27;82.03
18988;BME280;5494;51.796;10.952;2022-10-31T01:11:21;99385.19;;;14.32;81.67
18988;BME280;5494;51.796;10.952;2022-10-31T01:13:53;99387.25;;;14.27;81.79
18988;BME280;5494;51.796;10.952;2022-10-31T01:16:25;99382.94;;;14.26;82.22
18988;BME280;5494;51.796;10.952;2022-10-31T01:18:55;99384.44;;;14.15;82.45
18988;BME280;5494;51.796;10.952;2022-10-31T01:21:29;99390.75;;;14.11;82.96
18988;BME280;5494;51.796;10.952;2022-10-31T01:23:59;99391.88;;;14.07;83.53
18988;BME280;5494;51.796;10.952;2022-10-31T01:26:31;99388.78;;;14.01;83.57
18988;BME280;5494;51.796;10.952;2022-10-31T01:29:04;99393.00;;;14.03;83.70
18988;BME280;5494;51.796;10.952;2022-10-31T01:31:37;99390.25;;;14.05;83.46
18988;BME280;5494;51.796;10.952;2022-10-31T01:34:09;99389.34;;;14.06;83.34
18988;BME280;5494;51.796;10.952;2022-10-31T01:36:40;99396.34;;;14.05;82.94
18988;BME280;5494;51.796;10.952;2022-10-31T01:39:11;99392.66;;;13.94;83.79
18988;BME280;5494;51.796;10.952;2022-10-31T01:41:44;99399.75;;;13.92;84.91
18988;BME280;5494;51.796;10.952;2022-10-31T01:44:52;99397.22;;;13.90;84.38
18988;BME280;5494;51.796;10.952;2022-10-31T01:47:34;99399.44;;;13.82;85.20
18988;BME280;5494;51.796;10.952;2022-10-31T01:50:13;99398.50;;;13.83;85.10
18988;BME280;5494;51.796;10.952;2022-10-31T01:52:47;99396.91;;;13.80;85.06
18988;BME280;5494;51.796;10.952;2022-10-31T01:55:23;99393.06;;;13.72;85.66
18988;BME280;5494;51.796;10.952;2022-10-31T01:58:03;99399.47;;;13.66;86.02
18988;BME280;5494;51.796;10.952;2022-10-31T02:00:35;99409.00;;;13.67;86.34
18988;BME280;5494;51.796;10.952;2022-10-31T02:03:04;99408.50;;;13.61;86.72
18988;BME280;5494;51.796;10.952;2022-10-31T02:05:33;99401.03;;;13.55;87.24
18988;BME280;5494;51.796;10.952;2022-10-31T02:08:08;99405.28;;;13.56;87.72
18988;BME280;5494;51.796;10.952;2022-10-31T02:10:42;99400.81;;;13.58;87.62
18988;BME280;5494;51.796;10.952;2022-10-31T02:13:12;99404.56;;;13.54;88.41
18988;BME280;5494;51.796;10.952;2022-10-31T02:15:53;99396.44;;;13.58;88.37
18988;BME280;5494;51.796;10.952;2022-10-31T02:18:25;99402.59;;;13.57;88.53
18988;BME280;5494;51.796;10.952;2022-10-31T02:21:08;99398.22;;;13.58;88.90
18988;BME280;5494;51.796;10.952;2022-10-31T02:24:45;99407.41;;;13.49;89.75
18988;BME280;5494;51.796;10.952;2022-10-31T02:27:32;99405.91;;;13.45;89.63
18988;BME280;5494;51.796;10.952;2022-10-31T02:30:16;99407.41;;;13.49;89.53
18988;BME280;5494;51.796;10.952;2022-10-31T02:33:20;99406.66;;;13.47;89.79
18988;BME280;5494;51.796;10.952;2022-10-31T02:36:03;99415.50;;;13.45;89.49
18988;BME280;5494;51.796;10.952;2022-10-31T02:38:46;99408.00;;;13.38;89.90
18988;BME280;5494;51.796;10.952;2022-10-31T02:41:41;99410.88;;;13.34;90.07
18988;BME280;5494;51.796;10.952;2022-10-31T02:44:22;99419.38;;;13.37;90.26
18988;BME280;5494;51.796;10.952;2022-10-31T02:47:01;99417.69;;;13.36;89.88
18988;BME280;5494;51.796;10.952;2022-10-31T02:49:40;99425.94;;;13.29;90.00
18988;BME280;5494;51.796;10.952;2022-10-31T02:52:17;99427.88;;;13.25;90.66
18988;BME280;5494;51.796;10.952;2022-10-31T02:54:48;99426.78;;;13.29;90.37
18988;BME280;5494;51.796;10.952;2022-10-31T02:57:21;99435.53;;;13.28;90.31
18988;BME280;5494;51.796;10.952;2022-10-31T03:00:00;99435.72;;;13.25;89.99
18988;BME280;5494;51.796;10.952;2022-10-31T03:02:54;99433.53;;;13.18;90.55
18988;BME280;5494;51.796;10.952;2022-10-31T03:05:53;99436.97;;;13.18;90.70
18988;BME280;5494;51.796;10.952;2022-10-31T03:08:30;99436.97;;;13.18;90.84
18988;BME280;5494;51.796;10.952;2022-10-31T03:11:04;99440.16;;;13.23;90.52
18988;BME280;5494;51.796;10.952;2022-10-31T03:13:39;99430.84;;;13.19;91.05
18988;BME280;5494;51.796;10.952;2022-10-31T03:16:15;99433.81;;;13.12;91.53
18988;BME280;5494;51.796;10.952;2022-10-31T03:18:53;99440.13;;;13.08;91.92
18988;BME280;5494;51.796;10.952;2022-10-31T03:21:34;99433.31;;;13.05;92.27
18988;BME280;5494;51.796;10.952;2022-10-31T03:24:06;99445.75;;;13.00;92.84
18988;BME280;5494;51.796;10.952;2022-10-31T03:26:41;99454.25;;;13.03;93.02
18988;BME280;5494;51.796;10.952;2022-10-31T03:29:15;99456.03;;;13.03;93.15
18988;BME280;5494;51.796;10.952;2022-10-31T03:31:50;99454.50;;;12.99;94.03
18988;BME280;5494;51.796;10.952;2022-10-31T03:34:22;99460.47;;;13.01;94.79
18988;BME280;5494;51.796;10.952;2022-10-31T03:36:56;99464.00;;;13.00;94.94
18988;BME280;5494;51.796;10.952;2022-10-31T03:39:27;99459.56;;;13.02;94.81
18988;BME280;5494;51.796;10.952;2022-10-31T03:42:02;99457.19;;;12.97;94.88
18988;BME280;5494;51.796;10.952;2022-10-31T03:44:35;99471.84;;;13.00;95.25
18988;BME280;5494;51.796;10.952;2022-10-31T03:47:05;99457.19;;;12.97;95.42
18988;BME280;5494;51.796;10.952;2022-10-31T03:49:34;99471.03;;;12.99;95.71
18988;BME280;5494;51.796;10.952;2022-10-31T03:52:13;99478.06;;;12.97;95.82
18988;BME280;5494;51.796;10.952;2022-10-31T03:54:48;99477.16;;;12.98;95.75
18988;BME280;5494;51.796;10.952;2022-10-31T03:57:25;99480.75;;;12.96;95.81
18988;BME280;5494;51.796;10.952;2022-10-31T04:00:03;99472.84;;;12.97;96.17
18988;BME280;5494;51.796;10.952;2022-10-31T04:02:38;99475.63;;;12.94;96.67
18988;BME280;5494;51.796;10.952;2022-10-31T04:05:11;99481.41;;;12.84;96.94
18988;BME280;5494;51.796;10.952;2022-10-31T04:07:47;99472.81;;;12.82;96.98
18988;BME280;5494;51.796;10.952;2022-10-31T04:10:19;99486.78;;;12.81;97.32
18988;BME280;5494;51.796;10.952;2022-10-31T04:12:54;99484.94;;;12.83;97.29
18988;BME280;5494;51.796;10.952;2022-10-31T04:15:34;99481.41;;;12.84;96.59
18988;BME280;5494;51.796;10.952;2022-10-31T04:18:05;99480.16;;;12.91;96.67
18988;BME280;5494;51.796;10.952;2022-10-31T04:20:39;99484.47;;;12.92;96.13
18988;BME280;5494;51.796;10.952;2022-10-31T04:23:17;99486.16;;;12.93;95.86
18988;BME280;5494;51.796;10.952;2022-10-31T04:25:47;99481.09;;;12.90;95.88
18988;BME280;5494;51.796;10.952;2022-10-31T04:28:17;99490.75;;;12.88;95.87
18988;BME280;5494;51.796;10.952;2022-10-31T04:30:51;99488.13;;;12.88;96.12
18988;BME280;5494;51.796;10.952;2022-10-31T04:33:20;99488.31;;;12.85;96.41
18988;BME280;5494;51.796;10.952;2022-10-31T04:35:49;99486.84;;;12.79;97.28
18988;BME280;5494;51.796;10.952;2022-10-31T04:38:19;99486.78;;;12.81;97.21
18988;BME280;5494;51.796;10.952;2022-10-31T04:40:49;99487.88;;;12.77;97.34
18988;BME280;5494;51.796;10.952;2022-10-31T04:43:37;99489.78;;;12.73;97.86
18988;BME280;5494;51.796;10.952;2022-10-31T04:46:06;99493.59;;;12.66;98.84
18988;BME280;5494;51.796;10.952;2022-10-31T04:48:35;99490.28;;;12.80;99.34
18988;BME280;5494;51.796;10.952;2022-10-31T04:51:06;99484.03;;;12.67;98.84
18988;BME280;5494;51.796;10.952;2022-10-31T04:53:35;99486.81;;;12.63;99.71
18988;BME280;5494;51.796;10.952;2022-10-31T04:56:27;99498.47;;;12.56;100.00
18988;BME280;5494;51.796;10.952;2022-10-31T04:59:01;99491.69;;;12.52;100.00
18988;BME280;5494;51.796;10.952;2022-10-31T05:01:41;99496.19;;;12.50;100.00
18988;BME280;5494;51.796;10.952;2022-10-31T05:04:11;99502.00;;;12.55;100.00
18988;BME280;5494;51.796;10.952;2022-10-31T05:06:39;99496.06;;;12.52;100.00
18988;BME280;5494;51.796;10.952;2022-10-31T05:09:10;99487.34;;;12.53;100.00
18988;BME280;5494;51.796;10.952;2022-10-31T05:11:38;99485.63;;;12.52;100.00
18988;BME280;5494;51.796;10.952;2022-10-31T05:14:21;99495.25;;;12.51;100.00
18988;BME280;5494;51.796;10.952;2022-10-31T05:17:16;99492.00;;;12.46;100.00
18988;BME280;5494;51.796;10.952;2022-10-31T05:20:05;99490.69;;;12.38;100.00
18988;BME280;5494;51.796;10.952;2022-10-31T05:22:53;99498.44;;;12.39;100.00
18988;BME280;5494;51.796;10.952;2022-10-31T05:25:25;99497.53;;;12.40;100.00
18988;BME280;5494;51.796;10.952;2022-10-31T05:27:55;99495.16;;;12.36;100.00
18988;BME280;5494;51.796;10.952;2022-10-31T05:30:28;99499.69;;;12.32;100.00
18988;BME280;5494;51.796;10.952;2022-10-31T05:32:58;99509.13;;;12.35;100.00
18988;BME280;5494;51.796;10.952;2022-10-31T05:35:46;99511.03;;;12.31;100.00
18988;BME280;5494;51.796;10.952;2022-10-31T05:38:47;99512.72;;;12.32;100.00
18988;BME280;5494;51.796;10.952;2022-10-31T05:41:25;99508.50;;;12.30;100.00
18988;BME280;5494;51.796;10.952;2022-10-31T05:44:02;99509.44;;;12.29;100.00
18988;BME280;5494;51.796;10.952;2022-10-31T05:46:37;99508.72;;;12.25;100.00
18988;BME280;5494;51.796;10.952;2022-10-31T05:49:24;99514.03;;;12.23;100.00
18988;BME280;5494;51.796;10.952;2022-10-31T05:52:31;99515.84;;;12.21;100.00
18988;BME280;5494;51.796;10.952;2022-10-31T05:55:08;99508.94;;;12.20;100.00
18988;BME280;5494;51.796;10.952;2022-10-31T05:57:42;99505.50;;;12.20;100.00
18988;BME280;5494;51.796;10.952;2022-10-31T06:00:12;99501.75;;;12.26;100.00
18988;BME280;5494;51.796;10.952;2022-10-31T06:02:47;99491.25;;;12.27;100.00
18988;BME280;5494;51.796;10.952;2022-10-31T06:05:35;99500.69;;;12.30;100.00
18988;BME280;5494;51.796;10.952;2022-10-31T06:08:05;99506.03;;;12.27;100.00
18988;BME280;5494;51.796;10.952;2022-10-31T06:10:34;99510.22;;;12.31;100.00
18988;BME280;5494;51.796;10.952;2022-10-31T06:13:04;99512.16;;;12.26;100.00
18988;BME280;5494;51.796;10.952;2022-10-31T06:15:53;99509.03;;;12.19;100.00
18988;BME280;5494;51.796;10.952;2022-10-31T06:18:25;99510.84;;;12.17;100.00
18988;BME280;5494;51.796;10.952;2022-10-31T06:20:55;99507.97;;;12.23;100.00
18988;BME280;5494;51.796;10.952;2022-10-31T06:23:23;99509.19;;;12.16;100.00
18988;BME280;5494;51.796;10.952;2022-10-31T06:26:04;99520.03;;;12.07;100.00
18988;BME280;5494;51.796;10.952;2022-10-31T06:28:34;99519.44;;;12.19;100.00
18988;BME280;5494;51.796;10.952;2022-10-31T06:31:16;99524.16;;;12.30;100.00
18988;BME280;5494;51.796;10.952;2022-10-31T06:33:45;99524.84;;;12.33;100.00
18988;BME280;5494;51.796;10.952;2022-10-31T06:36:14;99527.97;;;12.40;100.00
18988;BME280;5494;51.796;10.952;2022-10-31T06:38:43;99540.50;;;12.50;100.00
18988;BME280;5494;51.796;10.952;2022-10-31T06:41:12;99533.28;;;12.55;100.00
18988;BME280;5494;51.796;10.952;2022-10-31T06:43:47;99536.13;;;12.68;100.00
18988;BME280;5494;51.796;10.952;2022-10-31T06:46:36;99545.56;;;12.71;100.00
18988;BME280;5494;51.796;10.952;2022-10-31T06:49:19;99547.56;;;12.83;100.00
18988;BME280;5494;51.796;10.952;2022-10-31T06:51:53;99554.00;;;12.93;100.00
18988;BME280;5494;51.796;10.952;2022-10-31T06:54:22;99553.44;;;13.03;100.00
18988;BME280;5494;51.796;10.952;2022-10-31T06:56:51;99562.44;;;13.15;100.00
18988;BME280;5494;51.796;10.952;2022-10-31T06:59:22;99560.19;;;12.73;100.00
18988;BME280;5494;51.796;10.952;2022-10-31T07:02:09;99560.91;;;12.77;100.00
18988;BME280;5494;51.796;10.952;2022-10-31T07:04:39;99560.75;;;12.97;100.00
18988;BME280;5494;51.796;10.952;2022-10-31T07:07:08;99560.28;;;13.23;100.00
18988;BME280;5494;51.796;10.952;2022-10-31T07:09:38;99563.13;;;13.52;100.00
18988;BME280;5494;51.796;10.952;2022-10-31T07:12:08;99564.81;;;13.84;100.00
18988;BME280;5494;51.796;10.952;2022-10-31T07:14:41;99563.16;;;14.14;99.40
18988;BME280;5494;51.796;10.952;2022-10-31T07:17:11;99573.25;;;14.36;97.96
18988;BME280;5494;51.796;10.952;2022-10-31T07:19:43;99569.34;;;14.59;97.02
18988;BME280;5494;51.796;10.952;2022-10-31T07:22:14;99577.59;;;14.67;95.71
18988;BME280;5494;51.796;10.952;2022-10-31T07:24:44;99572.63;;;14.92;94.72
18988;BME280;5494;51.796;10.952;2022-10-31T07:27:36;99575.47;;;15.32;93.27
18988;BME280;5494;51.796;10.952;2022-10-31T07:30:13;99574.38;;;15.64;91.39
18988;BME280;5494;51.796;10.952;2022-10-31T07:32:43;99580.13;;;15.98;89.37
18988;BME280;5494;51.796;10.952;2022-10-31T07:35:17;99584.41;;;16.13;89.33
18988;BME280;5494;51.796;10.952;2022-10-31T07:37:48;99574.09;;;16.24;88.09
18988;BME280;5494;51.796;10.952;2022-10-31T07:40:18;99574.16;;;15.96;87.60
18988;BME280;5494;51.796;10.952;2022-10-31T07:42:49;99579.56;;;16.07;87.93
18988;BME280;5494;51.796;10.952;2022-10-31T07:45:38;99581.03;;;16.52;86.32
18988;BME280;5494;51.796;10.952;2022-10-31T07:48:30;99579.38;;;17.03;84.12
18988;BME280;5494;51.796;10.952;2022-10-31T07:51:37;99582.88;;;17.42;82.41
18988;BME280;5494;51.796;10.952;2022-10-31T07:54:32;99591.75;;;17.01;81.85
18988;BME280;5494;51.796;10.952;2022-10-31T07:57:01;99585.03;;;16.97;83.37
18988;BME280;5494;51.796;10.952;2022-10-31T07:59:29;99584.50;;;16.92;83.33
18988;BME280;5494;51.796;10.952;2022-10-31T08:02:01;99582.81;;;16.91;83.55
18988;BME280;5494;51.796;10.952;2022-10-31T08:04:48;99579.06;;;17.46;83.02
18988;BME280;5494;51.796;10.952;2022-10-31T08:07:29;99575.09;;;18.02;81.11
18988;BME280;5494;51.796;10.952;2022-10-31T08:10:05;99577.16;;;18.70;77.49
18988;BME280;5494;51.796;10.952;2022-10-31T08:12:34;99573.28;;;18.98;75.00
18988;BME280;5494;51.796;10.952;2022-10-31T08:15:08;99570.72;;;19.42;74.17
18988;BME280;5494;51.796;10.952;2022-10-31T08:17:39;99573.47;;;19.41;73.51
18988;BME280;5494;51.796;10.952;2022-10-31T08:20:10;99566.19;;;19.78;73.43
18988;BME280;5494;51.796;10.952;2022-10-31T08:22:53;99561.97;;;19.97;71.43
18988;BME280;5494;51.796;10.952;2022-10-31T08:25:23;99566.44;;;19.75;71.50
18988;BME280;5494;51.796;10.952;2022-10-31T08:27:54;99565.03;;;20.14;71.66
18988;BME280;5494;51.796;10.952;2022-10-31T08:30:27;99561.91;;;20.63;69.74
18988;BME280;5494;51.796;10.952;2022-10-31T08:33:17;99565.47;;;20.41;69.30
18988;BME280;5494;51.796;10.952;2022-10-31T08:36:05;99553.53;;;20.58;68.26
18988;BME280;5494;51.796;10.952;2022-10-31T08:38:55;99558.00;;;20.78;68.30
18988;BME280;5494;51.796;10.952;2022-10-31T08:41:29;99559.28;;;20.83;68.95
18988;BME280;5494;51.796;10.952;2022-10-31T08:43:59;99553.13;;;20.94;68.60
18988;BME280;5494;51.796;10.952;2022-10-31T08:46:28;99548.16;;;21.21;67.04
18988;BME280;5494;51.796;10.952;2022-10-31T08:48:59;99545.28;;;20.51;69.15
18988;BME280;5494;51.796;10.952;2022-10-31T08:51:28;99546.50;;;19.93;71.37
18988;BME280;5494;51.796;10.952;2022-10-31T08:53:57;99540.28;;;19.72;73.28
18988;BME280;5494;51.796;10.952;2022-10-31T08:56:44;99540.53;;;19.80;72.99
18988;BME280;5494;51.796;10.952;2022-10-31T08:59:29;99538.16;;;19.54;73.61
18988;BME280;5494;51.796;10.952;2022-10-31T09:02:18;99541.84;;;20.28;71.86
18988;BME280;5494;51.796;10.952;2022-10-31T09:04:50;99542.22;;;20.67;70.09
18988;BME280;5494;51.796;10.952;2022-10-31T09:07:19;99537.50;;;20.70;69.38
18988;BME280;5494;51.796;10.952;2022-10-31T09:09:48;99534.09;;;20.79;68.71
18988;BME280;5494;51.796;10.952;2022-10-31T09:12:19;99527.84;;;20.80;68.12
18988;BME280;5494;51.796;10.952;2022-10-31T09:15:27;99534.34;;;20.97;67.62
18988;BME280;5494;51.796;10.952;2022-10-31T09:18:16;99526.38;;;21.79;61.71
18988;BME280;5494;51.796;10.952;2022-10-31T09:20:59;99525.56;;;22.47;59.93
18988;BME280;5494;51.796;10.952;2022-10-31T09:23:30;99529.03;;;22.76;59.36
18988;BME280;5494;51.796;10.952;2022-10-31T09:26:01;99527.34;;;22.95;56.37
18988;BME280;5494;51.796;10.952;2022-10-31T09:28:33;99527.59;;;23.01;57.04
18988;BME280;5494;51.796;10.952;2022-10-31T09:31:07;99524.84;;;22.64;57.43
18988;BME280;5494;51.796;10.952;2022-10-31T09:34:02;99522.31;;;22.05;58.50
18988;BME280;5494;51.796;10.952;2022-10-31T09:36:38;99536.00;;;21.70;58.64
18988;BME280;5494;51.796;10.952;2022-10-31T09:39:12;99530.03;;;21.78;58.60
18988;BME280;5494;51.796;10.952;2022-10-31T09:42:16;99525.25;;;22.69;56.74
18988;BME280;5494;51.796;10.952;2022-10-31T09:45:03;99524.56;;;22.77;56.65
18988;BME280;5494;51.796;10.952;2022-10-31T09:47:51;99523.41;;;22.89;56.35
18988;BME280;5494;51.796;10.952;2022-10-31T09:50:41;99524.81;;;21.67;59.08
18988;BME280;5494;51.796;10.952;2022-10-31T09:53:39;99521.31;;;21.66;59.38
18988;BME280;5494;51.796;10.952;2022-10-31T09:56:15;99521.63;;;21.33;60.76
18988;BME280;5494;51.796;10.952;2022-10-31T09:58:48;99523.50;;;21.51;60.71
18988;BME280;5494;51.796;10.952;2022-10-31T10:01:32;99521.75;;;20.48;62.88
18988;BME280;5494;51.796;10.952;2022-10-31T10:04:21;99520.97;;;20.36;64.38
18988;BME280;5494;51.796;10.952;2022-10-31T10:07:22;99516.00;;;20.00;65.15
18988;BME280;5494;51.796;10.952;2022-10-31T10:10:18;99515.28;;;20.09;64.15
18988;BME280;5494;51.796;10.952;2022-10-31T10:13:39;99526.59;;;20.64;62.71
18988;BME280;5494;51.796;10.952;2022-10-31T10:16:29;99525.03;;;20.29;64.80
18988;BME280;5494;51.796;10.952;2022-10-31T10:19:25;99517.72;;;19.45;67.81
18988;BME280;5494;51.796;10.952;2022-10-31T10:22:04;99512.81;;;19.29;68.97
18988;BME280;5494;51.796;10.952;2022-10-31T10:24:56;99510.91;;;19.20;69.76
18988;BME280;5494;51.796;10.952;2022-10-31T10:27:49;99511.06;;;19.63;67.56
18988;BME280;5494;51.796;10.952;2022-10-31T10:30:21;99511.63;;;19.67;67.78
18988;BME280;5494;51.796;10.952;2022-10-31T10:32:56;99505.91;;;19.62;67.96
18988;BME280;5494;51.796;10.952;2022-10-31T10:35:32;99505.63;;;19.32;68.59
18988;BME280;5494;51.796;10.952;2022-10-31T10:38:15;99497.84;;;19.30;68.24
18988;BME280;5494;51.796;10.952;2022-10-31T10:40:46;99503.03;;;19.54;66.39
18988;BME280;5494;51.796;10.952;2022-10-31T10:43:23;99489.94;;;19.19;68.52
18988;BME280;5494;51.796;10.952;2022-10-31T10:46:18;99493.06;;;19.13;69.08
18988;BME280;5494;51.796;10.952;2022-10-31T10:49:16;99491.44;;;18.66;72.00
18988;BME280;5494;51.796;10.952;2022-10-31T10:51:50;99494.47;;;19.17;70.68
18988;BME280;5494;51.796;10.952;2022-10-31T10:54:54;99492.44;;;19.32;70.30
18988;BME280;5494;51.796;10.952;2022-10-31T10:57:45;99488.00;;;19.32;70.43
18988;BME280;5494;51.796;10.952;2022-10-31T11:00:22;99484.66;;;19.08;71.48
18988;BME280;5494;51.796;10.952;2022-10-31T11:02:52;99475.91;;;18.50;73.81
18988;BME280;5494;51.796;10.952;2022-10-31T11:05:28;99478.06;;;18.80;74.25
18988;BME280;5494;51.796;10.952;2022-10-31T11:07:59;99478.16;;;18.78;73.86
18988;BME280;5494;51.796;10.952;2022-10-31T11:10:27;99476.84;;;18.84;73.79
18988;BME280;5494;51.796;10.952;2022-10-31T11:13:21;99472.84;;;18.56;74.50
18988;BME280;5494;51.796;10.952;2022-10-31T11:15:57;99479.09;;;18.31;75.87
18988;BME280;5494;51.796;10.952;2022-10-31T11:18:30;99480.31;;;18.15;76.03
18988;BME280;5494;51.796;10.952;2022-10-31T11:21:02;99472.88;;;18.08;76.76
18988;BME280;5494;51.796;10.952;2022-10-31T11:23:32;99469.91;;;17.89;77.92
18988;BME280;5494;51.796;10.952;2022-10-31T11:26:05;99470.81;;;18.01;77.74
18988;BME280;5494;51.796;10.952;2022-10-31T11:28:34;99466.22;;;18.16;76.23
18988;BME280;5494;51.796;10.952;2022-10-31T11:31:12;99467.28;;;17.89;77.44
18988;BME280;5494;51.796;10.952;2022-10-31T11:33:48;99459.31;;;17.78;78.47
18988;BME280;5494;51.796;10.952;2022-10-31T11:36:24;99453.59;;;17.97;77.46
18988;BME280;5494;51.796;10.952;2022-10-31T11:38:54;99455.91;;;18.13;76.18
18988;BME280;5494;51.796;10.952;2022-10-31T11:41:28;99448.72;;;18.38;75.57
18988;BME280;5494;51.796;10.952;2022-10-31T11:44:02;99448.63;;;18.51;76.20
18988;BME280;5494;51.796;10.952;2022-10-31T11:46:38;99454.00;;;18.49;76.58
18988;BME280;5494;51.796;10.952;2022-10-31T11:49:16;99446.47;;;18.10;78.64
18988;BME280;5494;51.796;10.952;2022-10-31T11:51:51;99449.41;;;18.05;80.65
18988;BME280;5494;51.796;10.952;2022-10-31T11:54:25;99449.59;;;18.26;79.62
18988;BME280;5494;51.796;10.952;2022-10-31T11:56:55;99444.53;;;18.12;80.56
18988;BME280;5494;51.796;10.952;2022-10-31T11:59:28;99436.50;;;18.37;79.74
18988;BME280;5494;51.796;10.952;2022-10-31T12:02:02;99438.19;;;18.38;78.77
18988;BME280;5494;51.796;10.952;2022-10-31T12:04:39;99428.03;;;18.10;80.51
18988;BME280;5494;51.796;10.952;2022-10-31T12:07:10;99424.69;;;18.19;80.75
18988;BME280;5494;51.796;10.952;2022-10-31T12:09:39;99434.31;;;17.96;81.95
18988;BME280;5494;51.796;10.952;2022-10-31T12:12:50;99431.00;;;18.05;81.60
18988;BME280;5494;51.796;10.952;2022-10-31T12:15:31;99425.63;;;18.07;82.52
18988;BME280;5494;51.796;10.952;2022-10-31T12:18:50;99419.56;;;18.18;81.97
18988;BME280;5494;51.796;10.952;2022-10-31T12:21:47;99426.25;;;17.87;82.15
18988;BME280;5494;51.796;10.952;2022-10-31T12:27:34;99413.09;;;18.10;76.92
18988;BME280;5494;51.796;10.952;2022-10-31T12:30:18;99407.75;;;18.23;77.27
18988;BME280;5494;51.796;10.952;2022-10-31T12:33:21;99403.28;;;18.13;78.33
18988;BME280;5494;51.796;10.952;2022-10-31T12:36:08;99402.31;;;18.14;79.16
18988;BME280;5494;51.796;10.952;2022-10-31T12:39:02;99394.81;;;18.20;79.24
18988;BME280;5494;51.796;10.952;2022-10-31T12:41:46;99402.31;;;18.14;79.33
18988;BME280;5494;51.796;10.952;2022-10-31T12:44:54;99392.53;;;18.27;79.77
18988;BME280;5494;51.796;10.952;2022-10-31T12:47:46;99393.47;;;18.15;80.34
18988;BME280;5494;51.796;10.952;2022-10-31T12:50:39;99388.19;;;18.03;82.51
18988;BME280;5494;51.796;10.952;2022-10-31T12:53:32;99383.91;;;18.14;82.69
18988;BME280;5494;51.796;10.952;2022-10-31T12:56:21;99383.31;;;18.21;83.05
18988;BME280;5494;51.796;10.952;2022-10-31T12:58:59;99376.84;;;18.14;83.38
18988;BME280;5494;51.796;10.952;2022-10-31T13:01:34;99373.91;;;17.84;85.25
18988;BME280;5494;51.796;10.952;2022-10-31T13:04:15;99372.72;;;17.99;86.05
18988;BME280;5494;51.796;10.952;2022-10-31T13:06:54;99368.31;;;17.99;84.74
18988;BME280;5494;51.796;10.952;2022-10-31T13:09:32;99364.69;;;17.89;86.50
18988;BME280;5494;51.796;10.952;2022-10-31T13:12:08;99366.75;;;17.62;88.79
18988;BME280;5494;51.796;10.952;2022-10-31T13:14:42;99364.53;;;17.56;90.08
18988;BME280;5494;51.796;10.952;2022-10-31T13:17:22;99365.59;;;17.53;90.59
18988;BME280;5494;51.796;10.952;2022-10-31T13:20:08;99363.44;;;17.58;90.74
18988;BME280;5494;51.796;10.952;2022-10-31T13:22:47;99358.78;;;17.75;89.15
18988;BME280;5494;51.796;10.952;2022-10-31T13:25:24;99353.34;;;17.65;87.07
18988;BME280;5494;51.796;10.952;2022-10-31T13:27:58;99345.56;;;17.63;87.51
18988;BME280;5494;51.796;10.952;2022-10-31T13:30:31;99351.63;;;17.77;87.19
18988;BME280;5494;51.796;10.952;2022-10-31T13:33:05;99346.47;;;17.75;87.92
18988;BME280;5494;51.796;10.952;2022-10-31T13:35:51;99340.50;;;17.84;88.31
18988;BME280;5494;51.796;10.952;2022-10-31T13:38:27;99345.34;;;17.66;89.38
18988;BME280;5494;51.796;10.952;2022-10-31T13:41:09;99338.91;;;17.47;90.98
18988;BME280;5494;51.796;10.952;2022-10-31T13:43:59;99336.28;;;17.47;91.67
18988;BME280;5494;51.796;10.952;2022-10-31T13:46:37;99334.63;;;17.57;90.99
18988;BME280;5494;51.796;10.952;2022-10-31T13:52:16;99331.34;;;17.18;93.25
18988;BME280;5494;51.796;10.952;2022-10-31T13:54:48;99328.00;;;17.40;93.22
18988;BME280;5494;51.796;10.952;2022-10-31T13:57:31;99318.88;;;17.33;92.92
18988;BME280;5494;51.796;10.952;2022-10-31T14:00:06;99317.16;;;17.21;93.67